Time;durP1;ratioP1;P1;durP2;ratioP2;P2;SDS_P1;SDS_P2;PMS_P1;PMS_P2;Temp;Humidity;BMP_temperature;BMP_pressure;BME280_temperature;BME280_humidity;BME280_pressure;Samples;Min_cycle;Max_cycle;Signal;HPM_P1;HPM_P2
2022/05/07 00:00:28;;;;;;;33.80;24.10;;;12.90;99.90;;;;;;5048371;28;20077;-78
2022/05/07 00:02:55;;;;;;;32.53;22.45;;;12.90;99.90;;;;;;5045613;28;20049;-78
2022/05/07 00:05:21;;;;;;;32.75;23.20;;;12.80;99.90;;;;;;5043866;28;20060;-78
2022/05/07 00:07:47;;;;;;;33.38;22.02;;;12.90;99.90;;;;;;5060752;28;20514;-78
2022/05/07 00:10:14;;;;;;;31.90;22.00;;;12.90;99.90;;;;;;5047051;28;20045;-78
2022/05/07 00:12:40;;;;;;;29.98;21.10;;;12.90;99.90;;;;;;5027841;28;20072;-78
2022/05/07 00:15:06;;;;;;;32.65;21.60;;;13.00;99.90;;;;;;5029314;28;20104;-78
2022/05/07 00:20:17;;;;;;;36.53;23.63;;;13.00;99.90;;;;;;5045982;28;20072;-78
2022/05/07 00:22:43;;;;;;;32.17;22.27;;;13.00;99.90;;;;;;5023287;28;20045;-77
2022/05/07 00:25:09;;;;;;;34.45;22.63;;;13.00;99.90;;;;;;5047232;28;20064;-78
2022/05/07 00:27:35;;;;;;;33.78;22.17;;;13.10;99.90;;;;;;5062202;28;20719;-78
2022/05/07 00:30:01;;;;;;;31.67;22.38;;;13.00;99.90;;;;;;5045674;28;20041;-78
2022/05/07 00:32:27;;;;;;;29.23;21.83;;;13.00;99.90;;;;;;5045788;28;20492;-78
2022/05/07 00:34:52;;;;;;;30.23;22.02;;;13.00;99.90;;;;;;5045207;28;20033;-78
2022/05/07 00:37:18;;;;;;;32.28;22.95;;;13.00;99.90;;;;;;5047030;28;20044;-78
2022/05/07 00:39:44;;;;;;;33.67;21.58;;;13.00;99.90;;;;;;5028246;28;20066;-77
2022/05/07 00:42:09;;;;;;;34.15;23.17;;;13.00;99.90;;;;;;5029591;28;20068;-78
2022/05/07 00:44:35;;;;;;;32.65;23.70;;;13.00;99.90;;;;;;5029464;28;20045;-77
2022/05/07 00:47:09;;;;;;;34.88;23.70;;;13.10;99.90;;;;;;5030521;28;20056;-77
2022/05/07 00:49:35;;;;;;;33.47;23.85;;;13.00;99.90;;;;;;5044984;28;20095;-78
2022/05/07 00:52:01;;;;;;;35.75;24.33;;;13.00;99.90;;;;;;5031269;28;20048;-77
2022/05/07 00:54:28;;;;;;;34.03;23.40;;;13.00;99.90;;;;;;5065377;28;20128;-76
2022/05/07 00:56:53;;;;;;;37.50;24.42;;;13.00;99.90;;;;;;5048409;28;20083;-76
2022/05/07 00:59:19;;;;;;;33.80;23.50;;;13.00;99.90;;;;;;5032931;28;20495;-76
2022/05/07 01:01:45;;;;;;;31.55;23.40;;;13.10;99.90;;;;;;5031174;28;20068;-76
2022/05/07 01:04:11;;;;;;;39.55;25.45;;;13.10;99.90;;;;;;5032664;28;20167;-76
2022/05/07 01:06:37;;;;;;;33.90;23.67;;;13.10;99.90;;;;;;5031479;28;20053;-76
2022/05/07 01:09:04;;;;;;;37.55;24.88;;;13.00;99.90;;;;;;5049670;28;20068;-76
2022/05/07 01:11:31;;;;;;;36.95;25.42;;;13.00;99.90;;;;;;5049213;28;20041;-76
2022/05/07 01:13:56;;;;;;;34.13;26.55;;;13.00;99.90;;;;;;5031066;28;20063;-76
2022/05/07 01:16:23;;;;;;;36.45;25.63;;;13.00;99.90;;;;;;5035253;28;20045;-76
2022/05/07 01:18:48;;;;;;;38.40;25.70;;;13.00;99.90;;;;;;5028195;28;20067;-76
2022/05/07 01:21:17;;;;;;;32.45;24.92;;;13.00;99.90;;;;;;5047320;28;20057;-76
2022/05/07 01:23:44;;;;;;;32.97;24.35;;;13.00;99.90;;;;;;5043108;28;20037;-76
2022/05/07 01:26:11;;;;;;;33.38;25.30;;;13.00;99.90;;;;;;5027289;28;20061;-76
2022/05/07 01:28:37;;;;;;;37.33;24.77;;;13.00;99.90;;;;;;5032396;28;20098;-77
2022/05/07 01:31:03;;;;;;;39.53;25.08;;;13.00;99.90;;;;;;5049714;28;20385;-77
2022/05/07 01:33:33;;;;;;;42.55;28.08;;;12.90;99.90;;;;;;5031302;28;20051;-77
2022/05/07 01:36:01;;;;;;;35.90;25.65;;;12.90;99.90;;;;;;5047883;28;20301;-77
2022/05/07 01:38:27;;;;;;;36.92;24.73;;;12.90;99.90;;;;;;5050587;28;20053;-77
2022/05/07 01:40:53;;;;;;;37.30;26.10;;;12.90;99.90;;;;;;5048492;28;20052;-77
2022/05/07 01:43:19;;;;;;;39.55;25.33;;;12.90;99.90;;;;;;5049061;28;20557;-77
2022/05/07 01:45:44;;;;;;;38.70;27.02;;;12.90;99.90;;;;;;5045089;28;20033;-77
2022/05/07 01:48:10;;;;;;;36.20;25.08;;;12.90;99.90;;;;;;5047948;28;20492;-77
2022/05/07 01:50:38;;;;;;;39.17;27.40;;;12.90;99.90;;;;;;5047994;28;20102;-77
2022/05/07 01:53:14;;;;;;;39.13;25.98;;;12.90;99.90;;;;;;5048080;28;20041;-77
2022/05/07 01:55:40;;;;;;;37.75;26.33;;;12.90;99.90;;;;;;5031174;28;20045;-77
2022/05/07 01:58:06;;;;;;;35.30;26.88;;;12.90;99.90;;;;;;5029571;28;20084;-77
2022/05/07 02:00:33;;;;;;;38.58;26.83;;;12.90;99.90;;;;;;5048717;28;20491;-77
2022/05/07 02:02:59;;;;;;;37.72;26.85;;;12.90;99.90;;;;;;5031820;28;20464;-77
2022/05/07 02:05:26;;;;;;;38.15;27.45;;;12.90;99.90;;;;;;5049236;28;20116;-77
2022/05/07 02:07:53;;;;;;;38.53;26.50;;;12.90;99.90;;;;;;5029678;28;20168;-77
2022/05/07 02:10:19;;;;;;;38.38;24.48;;;12.90;99.90;;;;;;5032673;28;20049;-77
2022/05/07 02:12:45;;;;;;;40.05;27.67;;;12.90;99.90;;;;;;5048825;28;20244;-77
2022/05/07 02:15:11;;;;;;;38.58;27.00;;;12.90;99.90;;;;;;5030675;28;20045;-77
2022/05/07 02:17:37;;;;;;;37.60;26.52;;;12.90;99.90;;;;;;5064053;28;20045;-77
2022/05/07 02:20:03;;;;;;;37.15;25.40;;;12.90;99.90;;;;;;5029959;28;20131;-77
2022/05/07 02:22:29;;;;;;;34.00;26.08;;;12.90;99.90;;;;;;5048958;28;20488;-77
2022/05/07 02:24:55;;;;;;;34.92;26.25;;;12.90;99.90;;;;;;5025001;28;20131;-77
2022/05/07 02:27:21;;;;;;;40.20;28.20;;;12.90;99.90;;;;;;5030079;28;20457;-77
2022/05/07 02:29:46;;;;;;;36.92;25.75;;;12.90;99.90;;;;;;5047988;28;20045;-77
2022/05/07 02:32:13;;;;;;;35.38;25.70;;;12.90;99.90;;;;;;5028544;28;20378;-77
2022/05/07 02:34:40;;;;;;;37.08;25.80;;;12.90;99.90;;;;;;5030139;28;20407;-77
2022/05/07 02:37:06;;;;;;;38.10;26.85;;;12.90;99.90;;;;;;5030261;28;20045;-77
2022/05/07 02:39:32;;;;;;;34.60;24.10;;;12.90;99.90;;;;;;5048751;28;20070;-77
2022/05/07 02:44:43;;;;;;;38.70;27.15;;;12.90;99.90;;;;;;5043674;28;20073;-77
2022/05/07 02:47:09;;;;;;;34.15;25.70;;;12.90;99.90;;;;;;5028330;28;20077;-77
2022/05/07 02:49:35;;;;;;;35.65;25.70;;;12.80;99.90;;;;;;5046613;28;20398;-77
2022/05/07 02:52:01;;;;;;;35.40;23.52;;;12.80;99.90;;;;;;5048810;28;20102;-77
2022/05/07 02:54:26;;;;;;;34.47;24.27;;;12.80;99.90;;;;;;5050828;28;20045;-77
2022/05/07 02:56:52;;;;;;;31.65;24.13;;;12.80;99.90;;;;;;5047317;28;20037;-77
2022/05/07 02:59:17;;;;;;;33.15;24.67;;;12.80;99.90;;;;;;5046824;28;20072;-77
2022/05/07 03:01:43;;;;;;;33.40;23.40;;;12.80;99.90;;;;;;5045806;28;20059;-77
2022/05/07 03:04:09;;;;;;;34.33;24.90;;;12.80;99.90;;;;;;5046865;28;20373;-77
2022/05/07 03:06:35;;;;;;;32.50;23.95;;;12.70;99.90;;;;;;5047617;28;20060;-77
2022/05/07 03:09:01;;;;;;;35.67;24.75;;;12.80;99.90;;;;;;5045660;28;20073;-77
2022/05/07 03:11:27;;;;;;;33.80;23.63;;;12.80;99.90;;;;;;5028404;28;20045;-77
2022/05/07 03:13:52;;;;;;;33.97;23.38;;;12.70;99.90;;;;;;5048394;28;20040;-77
2022/05/07 03:16:18;;;;;;;33.35;24.30;;;12.70;99.90;;;;;;5047046;28;20055;-77
2022/05/07 03:18:44;;;;;;;33.00;24.90;;;12.70;99.90;;;;;;5029319;28;20072;-77
2022/05/07 03:21:09;;;;;;;31.65;23.88;;;12.70;99.90;;;;;;5029060;28;20044;-77
2022/05/07 03:23:35;;;;;;;35.78;24.45;;;12.70;99.90;;;;;;5042623;28;20037;-78
2022/05/07 03:26:01;;;;;;;35.45;23.83;;;12.70;99.90;;;;;;5046113;28;20453;-77
2022/05/07 03:28:26;;;;;;;31.80;23.77;;;12.60;99.90;;;;;;5047607;28;20476;-77
2022/05/07 03:30:52;;;;;;;30.60;23.25;;;12.60;99.90;;;;;;5029357;28;20128;-77
2022/05/07 03:33:17;;;;;;;36.33;25.25;;;12.60;99.90;;;;;;5030799;28;20045;-77
2022/05/07 03:35:47;;;;;;;33.42;22.88;;;12.50;99.90;;;;;;5028585;28;20052;-77
2022/05/07 03:38:13;;;;;;;31.10;24.52;;;12.50;99.90;;;;;;5047371;28;20048;-77
2022/05/07 03:40:38;;;;;;;33.40;23.70;;;12.50;99.90;;;;;;5047513;28;20369;-77
2022/05/07 03:43:05;;;;;;;33.28;24.80;;;12.50;99.90;;;;;;5032067;28;20056;-77
2022/05/07 03:45:31;;;;;;;33.00;23.67;;;12.40;99.90;;;;;;5028438;28;20064;-77
2022/05/07 03:47:57;;;;;;;30.02;23.15;;;12.40;99.90;;;;;;5042298;28;20037;-77
2022/05/07 03:50:23;;;;;;;33.33;24.48;;;12.40;99.90;;;;;;5047194;28;20507;-77
2022/05/07 03:55:32;;;;;;;29.08;23.38;;;12.40;99.90;;;;;;5057588;28;20446;-77
2022/05/07 03:57:58;;;;;;;33.33;24.15;;;12.40;99.90;;;;;;5046704;28;20045;-77
2022/05/07 04:00:24;;;;;;;34.20;24.27;;;12.40;99.90;;;;;;5047572;28;20048;-77
2022/05/07 04:02:49;;;;;;;34.00;24.10;;;12.30;99.90;;;;;;5047530;28;20390;-77
2022/05/07 04:05:15;;;;;;;30.02;24.00;;;12.30;99.90;;;;;;5046811;28;20040;-77
2022/05/07 04:07:40;;;;;;;32.45;24.77;;;12.30;99.90;;;;;;5027680;28;20427;-77
2022/05/07 04:10:06;;;;;;;31.30;23.77;;;12.30;99.90;;;;;;5046124;28;20132;-77
2022/05/07 04:12:32;;;;;;;32.70;24.25;;;12.40;99.90;;;;;;5030132;28;20041;-77
2022/05/07 04:15:01;;;;;;;31.38;22.90;;;12.30;99.90;;;;;;5047363;28;20055;-77
2022/05/07 04:17:27;;;;;;;30.42;23.85;;;12.40;99.90;;;;;;5045738;28;20124;-77
2022/05/07 04:19:53;;;;;;;33.75;23.83;;;12.40;99.90;;;;;;5029013;28;20152;-77
2022/05/07 04:22:20;;;;;;;29.70;23.63;;;12.40;99.90;;;;;;5028914;28;20380;-77
2022/05/07 04:24:46;;;;;;;31.77;24.63;;;12.40;99.90;;;;;;5048298;28;20205;-77
2022/05/07 04:27:11;;;;;;;33.63;26.05;;;12.40;99.90;;;;;;5047011;28;20056;-77
2022/05/07 04:29:37;;;;;;;33.92;23.48;;;12.40;99.90;;;;;;5052969;28;20037;-77
2022/05/07 04:32:03;;;;;;;33.90;24.63;;;12.50;99.90;;;;;;5050356;28;20103;-77
2022/05/07 04:34:29;;;;;;;33.47;24.95;;;12.50;99.90;;;;;;5050034;28;20048;-77
2022/05/07 04:36:56;;;;;;;35.67;25.40;;;12.50;99.90;;;;;;5050431;28;20033;-77
2022/05/07 04:39:21;;;;;;;33.90;24.00;;;12.50;99.90;;;;;;5031397;28;20468;-77
2022/05/07 04:41:47;;;;;;;29.95;24.15;;;12.50;99.90;;;;;;5066616;28;20056;-77
2022/05/07 04:44:16;;;;;;;32.40;23.83;;;12.60;99.90;;;;;;5049516;28;20045;-77
2022/05/07 04:46:41;;;;;;;34.63;25.38;;;12.60;99.90;;;;;;5053392;28;20392;-77
2022/05/07 04:49:07;;;;;;;34.40;25.27;;;12.60;99.90;;;;;;5049942;28;20099;-77
2022/05/07 04:51:32;;;;;;;34.05;25.45;;;12.60;99.90;;;;;;5049575;28;20036;-77
2022/05/07 04:53:58;;;;;;;33.42;23.73;;;12.60;99.90;;;;;;5050472;28;20404;-77
2022/05/07 04:56:24;;;;;;;33.13;23.88;;;12.70;99.90;;;;;;5048295;28;20111;-77
2022/05/07 04:58:51;;;;;;;33.58;25.10;;;12.70;99.90;;;;;;5033175;28;20060;-77
2022/05/07 05:01:17;;;;;;;33.65;25.08;;;12.70;99.90;;;;;;5031256;28;20059;-77
2022/05/07 05:03:42;;;;;;;29.95;22.75;;;12.70;99.90;;;;;;5048339;28;20045;-77
2022/05/07 05:06:08;;;;;;;35.78;25.70;;;12.70;99.90;;;;;;5035459;28;20442;-77
2022/05/07 05:08:34;;;;;;;33.42;25.20;;;12.70;99.90;;;;;;5052871;28;20033;-76
2022/05/07 05:10:59;;;;;;;29.80;23.95;;;12.70;99.90;;;;;;5046027;28;20120;-77
2022/05/07 05:13:25;;;;;;;33.28;24.02;;;12.70;99.90;;;;;;5034857;28;20041;-76
2022/05/07 05:15:50;;;;;;;33.22;25.38;;;12.80;99.90;;;;;;5031553;28;20040;-77
2022/05/07 05:18:16;;;;;;;31.67;25.55;;;12.80;99.90;;;;;;5049860;28;20037;-77
2022/05/07 05:20:42;;;;;;;34.92;25.35;;;12.80;99.90;;;;;;5031089;28;20051;-77
2022/05/07 05:23:08;;;;;;;31.45;24.83;;;12.80;99.90;;;;;;5025151;28;20052;-80
2022/05/07 05:25:33;;;;;;;34.33;27.65;;;12.80;99.90;;;;;;5034783;28;20435;-80
2022/05/07 05:27:59;;;;;;;31.38;25.08;;;12.90;99.90;;;;;;5047757;28;20037;-80
2022/05/07 05:30:24;;;;;;;32.67;26.42;;;12.90;99.90;;;;;;5049014;28;20045;-80
2022/05/07 05:32:50;;;;;;;36.92;26.70;;;12.90;99.90;;;;;;5047380;28;20033;-80
2022/05/07 05:35:16;;;;;;;31.95;25.08;;;12.90;99.90;;;;;;5049239;28;20044;-80
2022/05/07 05:37:41;;;;;;;33.17;25.95;;;13.00;99.90;;;;;;5048206;28;20037;-80
2022/05/07 05:40:08;;;;;;;38.40;27.88;;;13.00;99.90;;;;;;5028490;28;20041;-79
2022/05/07 05:42:33;;;;;;;37.75;26.67;;;13.10;99.90;;;;;;5048951;28;20064;-80
2022/05/07 05:44:59;;;;;;;33.08;26.58;;;13.10;99.90;;;;;;5047938;28;20045;-80
2022/05/07 05:47:24;;;;;;;32.63;25.55;;;13.20;99.90;;;;;;5032465;28;20055;-78
2022/05/07 05:49:51;;;;;;;31.08;24.50;;;13.20;99.90;;;;;;5048400;28;20072;-76
2022/05/07 05:52:16;;;;;;;33.33;24.98;;;13.30;99.90;;;;;;5046769;28;20400;-76
2022/05/07 05:54:42;;;;;;;31.88;24.42;;;13.30;99.90;;;;;;5048841;28;20105;-76
2022/05/07 05:57:07;;;;;;;31.98;24.48;;;13.40;99.90;;;;;;5049194;28;20052;-77
2022/05/07 05:59:33;;;;;;;29.90;23.77;;;13.40;99.90;;;;;;5046717;28;20120;-77
2022/05/07 06:01:59;;;;;;;30.58;23.45;;;13.50;99.90;;;;;;5047102;28;20060;-76
2022/05/07 06:04:24;;;;;;;28.75;22.20;;;13.50;99.90;;;;;;5032233;28;20053;-79
2022/05/07 06:06:50;;;;;;;28.88;23.00;;;13.60;99.90;;;;;;5048072;28;20036;-78
2022/05/07 06:09:16;;;;;;;31.20;23.83;;;13.60;99.90;;;;;;5026807;28;20045;-77
2022/05/07 06:11:42;;;;;;;28.58;23.17;;;13.60;99.90;;;;;;5049389;28;20033;-78
2022/05/07 06:14:07;;;;;;;26.30;21.92;;;13.70;99.90;;;;;;5047370;28;20049;-78
2022/05/07 06:16:33;;;;;;;30.50;23.40;;;13.70;99.90;;;;;;5047563;28;20033;-80
2022/05/07 06:18:59;;;;;;;31.38;23.42;;;13.80;99.90;;;;;;5049153;28;20146;-79
2022/05/07 06:21:26;;;;;;;25.17;22.35;;;13.80;99.90;;;;;;5048702;28;20114;-80
2022/05/07 06:23:52;;;;;;;29.38;22.10;;;13.90;99.90;;;;;;5045878;28;20118;-79
2022/05/07 06:29:02;;;;;;;32.35;23.02;;;13.90;99.90;;;;;;5061914;28;20085;-80
2022/05/07 06:31:29;;;;;;;26.63;21.02;;;14.00;99.90;;;;;;5028367;28;20076;-80
2022/05/07 06:33:55;;;;;;;28.92;23.27;;;14.00;99.90;;;;;;5061943;28;20087;-80
2022/05/07 06:36:20;;;;;;;26.50;21.20;;;14.10;99.90;;;;;;5064143;28;20045;-79
2022/05/07 06:38:46;;;;;;;29.75;22.77;;;14.20;99.90;;;;;;5047733;28;20457;-78
2022/05/07 06:41:11;;;;;;;26.83;22.52;;;14.20;99.90;;;;;;5030111;28;20564;-82
2022/05/07 06:43:37;;;;;;;27.48;21.88;;;14.30;99.90;;;;;;5047822;28;20064;-82
2022/05/07 06:46:03;;;;;;;28.42;22.33;;;14.30;99.90;;;;;;5042501;28;20511;-82
2022/05/07 06:48:29;;;;;;;32.33;22.75;;;14.30;99.90;;;;;;5041509;28;20605;-81
2022/05/07 06:50:55;;;;;;;26.48;21.23;;;14.40;99.90;;;;;;5043494;28;20052;-81
2022/05/07 06:53:20;;;;;;;28.10;23.38;;;14.40;99.90;;;;;;5044187;28;20044;-81
2022/05/07 06:55:55;;;;;;;30.40;23.40;;;14.50;99.90;;;;;;5025650;28;20543;-81
2022/05/07 06:58:33;;;;;;;28.25;22.00;;;14.50;99.90;;;;;;5047338;28;20094;-81
2022/05/07 07:01:01;;;;;;;28.70;21.55;;;14.60;99.90;;;;;;5029992;28;20098;-79
2022/05/07 07:03:27;;;;;;;28.42;21.27;;;14.60;99.90;;;;;;5044519;28;20052;-78
2022/05/07 07:05:53;;;;;;;29.15;21.65;;;14.60;99.90;;;;;;5046301;28;20055;-78
2022/05/07 07:08:19;;;;;;;25.85;20.17;;;14.60;99.90;;;;;;5025469;28;20076;-76
2022/05/07 07:10:45;;;;;;;23.98;20.25;;;14.70;99.90;;;;;;5048085;28;20080;-78
2022/05/07 07:13:11;;;;;;;28.27;21.80;;;14.70;99.90;;;;;;5049797;28;20032;-78
2022/05/07 07:15:39;;;;;;;29.65;21.95;;;14.70;99.90;;;;;;5048169;28;20044;-76
2022/05/07 07:18:09;;;;;;;28.48;22.17;;;14.70;99.90;;;;;;5028408;28;20049;-77
2022/05/07 07:20:36;;;;;;;29.80;22.20;;;14.70;99.90;;;;;;5028658;28;20051;-77
2022/05/07 07:23:02;;;;;;;31.10;21.48;;;14.70;99.90;;;;;;5044964;28;20126;-78
2022/05/07 07:25:28;;;;;;;25.30;22.20;;;14.80;99.90;;;;;;5047080;28;20098;-78
2022/05/07 07:27:53;;;;;;;26.23;21.60;;;15.00;99.90;;;;;;5044033;28;20407;-78
2022/05/07 07:30:19;;;;;;;28.00;21.27;;;15.10;99.90;;;;;;5029978;28;20051;-78
2022/05/07 07:32:44;;;;;;;30.23;22.30;;;15.30;99.90;;;;;;5046802;28;20041;-77
2022/05/07 07:35:10;;;;;;;23.00;18.58;;;15.40;99.90;;;;;;5029649;28;20041;-79
2022/05/07 07:37:35;;;;;;;27.10;19.95;;;15.50;99.90;;;;;;5045505;28;20095;-78
2022/05/07 07:40:02;;;;;;;25.58;20.95;;;15.60;99.90;;;;;;5028263;28;20075;-80
2022/05/07 07:42:27;;;;;;;25.55;21.67;;;15.60;99.90;;;;;;5028043;28;20044;-78
2022/05/07 07:50:29;;;;;;;27.55;21.42;;;15.80;99.90;;;;;;5024505;28;20049;-79
2022/05/07 07:52:55;;;;;;;25.40;19.15;;;15.90;99.90;;;;;;5048078;28;20044;-78
2022/05/07 07:55:22;;;;;;;23.23;19.23;;;16.00;99.90;;;;;;5030354;28;20048;-78
2022/05/07 07:57:48;;;;;;;25.80;19.08;;;16.00;99.90;;;;;;5046413;28;20616;-79
2022/05/07 08:00:14;;;;;;;22.77;19.02;;;15.90;99.90;;;;;;5032830;28;20048;-78
2022/05/07 08:02:53;;;;;;;23.38;18.92;;;15.90;99.90;;;;;;5055563;28;20449;-78
2022/05/07 08:05:24;;;;;;;25.17;19.40;;;16.00;99.90;;;;;;5041029;28;20044;-78
2022/05/07 08:13:19;;;;;;;27.98;20.88;;;16.10;99.90;;;;;;5041452;28;20615;-79
2022/05/07 08:15:48;;;;;;;25.27;20.48;;;16.20;99.90;;;;;;5058823;28;20045;-83
2022/05/07 08:18:14;;;;;;;27.55;22.25;;;16.30;99.90;;;;;;5052816;28;20037;-83
2022/05/07 08:20:41;;;;;;;27.02;22.20;;;16.40;99.90;;;;;;5049566;28;20045;-83
2022/05/07 08:23:08;;;;;;;28.30;21.40;;;16.60;99.90;;;;;;5040636;28;20057;-80
2022/05/07 08:25:34;;;;;;;25.73;21.48;;;16.70;99.90;;;;;;5032255;28;20052;-75
2022/05/07 08:28:00;;;;;;;26.38;21.50;;;16.80;99.90;;;;;;5048956;28;20064;-75
2022/05/07 08:30:25;;;;;;;29.38;21.52;;;16.80;99.90;;;;;;5031642;28;20438;-76
2022/05/07 08:32:51;;;;;;;25.15;20.55;;;16.90;99.90;;;;;;5033293;28;20045;-75
2022/05/07 08:35:18;;;;;;;28.30;21.58;;;16.90;99.90;;;;;;5050197;28;20044;-75
2022/05/07 08:37:44;;;;;;;28.08;20.60;;;16.90;99.90;;;;;;5044292;28;20045;-75
2022/05/07 08:40:13;;;;;;;28.17;21.40;;;16.90;99.90;;;;;;5027974;28;20048;-76
2022/05/07 08:42:39;;;;;;;24.48;21.73;;;17.00;99.90;;;;;;5050380;28;20056;-75
2022/05/07 08:45:05;;;;;;;29.42;23.52;;;17.10;99.90;;;;;;5063153;28;20057;-77
2022/05/07 08:47:31;;;;;;;27.75;21.23;;;17.20;99.90;;;;;;5050462;28;20045;-81
2022/05/07 08:49:57;;;;;;;27.98;21.17;;;17.20;99.90;;;;;;5048916;28;20077;-80
2022/05/07 08:52:23;;;;;;;24.88;19.40;;;17.20;99.90;;;;;;5031467;28;20488;-87
2022/05/07 08:54:49;;;;;;;27.63;21.45;;;17.30;99.90;;;;;;5032080;28;20057;-77
2022/05/07 08:57:15;;;;;;;24.45;20.98;;;17.30;99.90;;;;;;5047392;28;20041;-76
2022/05/07 08:59:43;;;;;;;25.02;21.30;;;17.30;99.90;;;;;;5031877;28;20044;-78
2022/05/07 09:02:09;;;;;;;28.05;20.63;;;17.40;99.90;;;;;;5048226;28;20512;-79
2022/05/07 09:04:36;;;;;;;27.00;19.63;;;17.40;99.90;;;;;;5040189;28;20411;-80
2022/05/07 09:07:05;;;;;;;28.60;20.08;;;17.50;99.90;;;;;;5049395;28;20115;-81
2022/05/07 09:09:31;;;;;;;25.67;19.70;;;17.50;99.90;;;;;;5044422;28;20053;-81
2022/05/07 09:11:58;;;;;;;24.10;19.08;;;17.50;99.90;;;;;;5049947;28;20155;-78
2022/05/07 09:14:31;;;;;;;27.40;19.90;;;17.60;99.90;;;;;;5049822;28;20408;-74
2022/05/07 09:17:00;;;;;;;24.73;19.13;;;17.60;99.90;;;;;;5049632;28;20056;-75
2022/05/07 09:19:30;;;;;;;25.23;20.38;;;17.70;99.90;;;;;;5050710;28;20064;-76
2022/05/07 09:22:09;;;;;;;26.33;20.60;;;17.70;99.90;;;;;;5046899;28;20416;-75
2022/05/07 09:24:36;;;;;;;26.92;21.08;;;17.70;99.90;;;;;;5042943;28;20489;-74
2022/05/07 09:27:04;;;;;;;26.33;20.88;;;17.70;99.90;;;;;;5063757;28;20102;-74
2022/05/07 09:29:31;;;;;;;25.75;21.17;;;17.60;99.90;;;;;;5034610;28;20104;-75
2022/05/07 09:32:13;;;;;;;26.23;21.35;;;17.60;99.90;;;;;;5049192;28;20071;-75
2022/05/07 09:37:39;;;;;;;24.73;20.52;;;17.60;99.90;;;;;;5051649;28;20054;-75
2022/05/07 09:40:07;;;;;;;27.63;21.42;;;17.60;99.90;;;;;;5049489;28;20137;-75
2022/05/07 09:42:36;;;;;;;23.15;19.88;;;17.60;99.90;;;;;;5042088;28;20041;-76
2022/05/07 09:45:06;;;;;;;26.88;18.75;;;17.60;99.90;;;;;;5048558;28;20049;-76
2022/05/07 09:47:32;;;;;;;23.23;17.35;;;17.60;99.90;;;;;;5029131;28;20040;-76
2022/05/07 09:58:16;;;;;;;20.05;16.45;;;18.00;99.90;;;;;;5048593;28;20138;-76
2022/05/07 10:00:54;;;;;;;21.27;17.17;;;18.10;99.90;;;;;;5049619;28;20052;-77
2022/05/07 10:03:27;;;;;;;22.10;13.95;;;18.20;99.90;;;;;;5045084;28;20456;-76
2022/05/07 10:06:11;;;;;;;20.20;14.40;;;18.30;99.90;;;;;;5034197;28;20045;-80
2022/05/07 10:08:47;;;;;;;18.15;14.38;;;18.40;99.90;;;;;;5027236;28;20058;-76
2022/05/07 10:11:14;;;;;;;19.80;15.95;;;18.40;99.90;;;;;;5049160;28;20041;-76
2022/05/07 10:13:40;;;;;;;21.92;16.25;;;18.50;99.90;;;;;;5051831;28;20048;-76
2022/05/07 10:16:06;;;;;;;21.10;15.43;;;18.50;99.90;;;;;;5031814;28;20045;-76
2022/05/07 10:18:38;;;;;;;20.73;15.35;;;18.70;99.90;;;;;;5050088;28;20099;-76
2022/05/07 10:21:14;;;;;;;20.13;16.17;;;18.70;99.90;;;;;;5047045;28;20495;-76
2022/05/07 10:23:56;;;;;;;22.70;18.90;;;18.90;99.90;;;;;;5027179;28;20060;-76
2022/05/07 10:26:41;;;;;;;27.60;20.85;;;18.90;99.90;;;;;;5032686;28;20049;-75
2022/05/07 10:29:07;;;;;;;29.38;23.08;;;18.90;99.90;;;;;;5049770;28;20049;-77
2022/05/07 10:31:44;;;;;;;33.47;25.95;;;18.90;99.90;;;;;;5048673;28;20051;-76
2022/05/07 10:34:10;;;;;;;33.58;25.60;;;19.00;99.90;;;;;;5049411;28;20076;-78
2022/05/07 10:36:36;;;;;;;38.90;29.30;;;18.80;99.90;;;;;;5047028;28;20511;-77
2022/05/07 10:39:09;;;;;;;36.38;28.17;;;18.80;99.90;;;;;;5033402;28;20045;-78
2022/05/07 10:41:46;;;;;;;38.75;28.48;;;18.80;99.90;;;;;;5048706;28;20049;-78
2022/05/07 10:44:11;;;;;;;39.58;28.90;;;18.90;99.90;;;;;;5045590;28;20056;-77
2022/05/07 10:46:44;;;;;;;40.05;29.40;;;19.00;99.90;;;;;;5047509;28;20044;-78
2022/05/07 10:49:10;;;;;;;40.47;28.40;;;19.10;99.90;;;;;;5036290;28;20053;-78
2022/05/07 10:51:50;;;;;;;40.05;30.48;;;19.00;99.90;;;;;;5048320;28;20037;-78
2022/05/07 10:54:24;;;;;;;39.00;29.38;;;19.00;99.90;;;;;;5045742;28;20337;-78
2022/05/07 10:56:58;;;;;;;39.13;29.80;;;19.10;99.90;;;;;;5049413;28;20048;-77
2022/05/07 10:59:26;;;;;;;36.17;27.50;;;19.20;99.90;;;;;;5048063;28;20033;-75
2022/05/07 11:02:02;;;;;;;35.28;27.50;;;19.20;99.90;;;;;;5048571;28;20120;-82
2022/05/07 11:04:28;;;;;;;36.75;27.85;;;19.30;99.90;;;;;;5068069;28;20045;-81
2022/05/07 11:06:55;;;;;;;36.33;26.83;;;19.30;99.90;;;;;;5033117;28;20044;-82
2022/05/07 11:09:23;;;;;;;34.22;25.10;;;19.40;99.90;;;;;;5039741;28;20073;-79
2022/05/07 11:11:54;;;;;;;31.50;23.90;;;19.50;99.90;;;;;;5045448;28;20499;-80
2022/05/07 11:14:23;;;;;;;29.30;21.85;;;19.60;99.90;;;;;;5046263;28;20052;-78
2022/05/07 11:16:55;;;;;;;31.15;22.63;;;19.70;99.90;;;;;;5048788;28;20037;-83
2022/05/07 11:19:33;;;;;;;30.80;24.35;;;19.80;99.90;;;;;;5030003;28;20057;-77
2022/05/07 11:21:59;;;;;;;30.83;22.38;;;19.90;99.90;;;;;;5032230;28;20052;-82
2022/05/07 11:24:26;;;;;;;31.63;24.45;;;20.00;99.90;;;;;;5061553;28;20056;-81
2022/05/07 11:27:06;;;;;;;31.33;24.58;;;20.00;99.90;;;;;;5049737;28;20044;-82
2022/05/07 11:29:34;;;;;;;34.30;25.27;;;20.00;99.90;;;;;;5059040;28;20132;-81
2022/05/07 11:32:06;;;;;;;28.65;23.13;;;19.90;99.90;;;;;;5051481;28;20049;-81
2022/05/07 11:34:34;;;;;;;31.95;22.92;;;19.90;99.90;;;;;;5011485;28;20384;-82
2022/05/07 11:37:22;;;;;;;33.22;23.55;;;19.80;99.90;;;;;;5031205;28;20107;-80
2022/05/07 11:39:55;;;;;;;31.85;22.85;;;19.70;99.90;;;;;;5031377;28;20048;-81
2022/05/07 11:42:28;;;;;;;30.42;24.85;;;19.70;99.90;;;;;;5031271;28;20053;-81
2022/05/07 11:47:55;;;;;;;34.25;24.25;;;19.70;99.90;;;;;;5049525;28;20072;-81
2022/05/07 11:50:24;;;;;;;32.80;25.05;;;19.70;99.90;;;;;;5045844;28;20075;-78
2022/05/07 11:52:50;;;;;;;37.97;26.80;;;19.60;99.90;;;;;;5049989;28;20049;-78
2022/05/07 11:55:19;;;;;;;34.15;25.00;;;19.50;99.90;;;;;;5030898;28;20203;-78
2022/05/07 11:57:46;;;;;;;34.67;25.42;;;19.40;99.90;;;;;;5053881;28;20435;-77
2022/05/07 12:00:21;;;;;;;35.67;26.02;;;19.20;99.90;;;;;;5048870;28;20368;-77
2022/05/07 12:02:52;;;;;;;;;;;19.10;99.90;;;;;;5032998;28;20045;-77
2022/05/07 12:05:19;;;;;;;33.15;24.33;;;18.90;99.90;;;;;;5050408;28;19920;-78
2022/05/07 12:07:51;;;;;;;33.53;23.90;;;18.70;99.90;;;;;;5032741;28;20460;-78
2022/05/07 12:10:19;;;;;;;31.60;22.25;;;18.70;99.90;;;;;;5050978;28;20049;-77
2022/05/07 12:12:46;;;;;;;31.02;23.08;;;18.70;99.90;;;;;;5031171;28;20053;-77
2022/05/07 12:15:12;;;;;;;28.00;19.92;;;18.70;99.90;;;;;;5051080;28;20082;-78
2022/05/07 12:17:53;;;;;;;29.30;19.60;;;18.80;99.90;;;;;;5049079;28;20072;-78
2022/05/07 12:20:23;;;;;;;26.25;17.52;;;18.90;99.90;;;;;;5032850;28;20056;-77
2022/05/07 12:31:04;;;;;;;21.83;15.32;;;19.10;99.90;;;;;;5046859;28;20056;-77
2022/05/07 12:33:30;;;;;;;25.70;18.38;;;19.10;99.90;;;;;;5068743;28;20185;-76
2022/05/07 12:35:56;;;;;;;24.42;17.20;;;19.20;99.90;;;;;;5021290;28;20580;-77
2022/05/07 12:38:25;;;;;;;23.92;17.95;;;19.40;99.90;;;;;;5043545;28;20614;-76
2022/05/07 12:40:50;;;;;;;28.25;17.77;;;19.60;99.90;;;;;;5032119;28;20124;-73
2022/05/07 12:43:16;;;;;;;24.65;17.30;;;19.70;99.90;;;;;;5061878;28;20037;-74
2022/05/07 12:45:43;;;;;;;20.52;15.00;;;19.80;99.90;;;;;;5050492;28;20175;-76
2022/05/07 12:48:09;;;;;;;22.70;13.40;;;19.70;99.90;;;;;;5050263;28;20084;-79
2022/05/07 12:50:34;;;;;;;16.17;10.65;;;19.60;99.90;;;;;;5047519;28;20594;-80
2022/05/07 12:53:00;;;;;;;16.05;9.80;;;19.50;99.90;;;;;;5051179;28;20117;-78
2022/05/07 12:55:25;;;;;;;16.38;9.68;;;19.40;99.90;;;;;;5030429;28;20060;-77
2022/05/07 12:57:51;;;;;;;14.50;9.52;;;19.40;99.90;;;;;;5051621;28;20404;-78
2022/05/07 13:00:17;;;;;;;14.82;9.55;;;19.40;99.90;;;;;;5033020;28;20503;-78
2022/05/07 13:02:43;;;;;;;14.20;10.00;;;19.50;99.90;;;;;;5051780;28;20045;-78
2022/05/07 13:05:09;;;;;;;16.30;10.30;;;19.50;99.90;;;;;;5033908;28;20056;-78
2022/05/07 13:07:34;;;;;;;13.88;8.95;;;19.50;99.90;;;;;;5052613;28;20048;-78
2022/05/07 13:10:00;;;;;;;15.07;9.45;;;19.50;99.90;;;;;;5037699;28;20416;-78
2022/05/07 13:12:26;;;;;;;15.40;9.68;;;19.50;99.90;;;;;;5068352;28;20032;-78